sensor_id;sensor_type;location;lat;lon;timestamp;pressure;altitude;pressure_sealevel;temperature;humidity
62791;BME280;48830;53.426;10.300;2023-02-22T00:00:25;101627.75;;;9.89;100.00
62791;BME280;48830;53.426;10.300;2023-02-22T00:03:05;101621.72;;;9.88;100.00
62791;BME280;48830;53.426;10.300;2023-02-22T00:05:32;101611.50;;;9.90;100.00
62791;BME280;48830;53.426;10.300;2023-02-22T00:07:57;101620.88;;;9.88;100.00
62791;BME280;48830;53.426;10.300;2023-02-22T00:10:25;101610.69;;;9.91;100.00
62791;BME280;48830;53.426;10.300;2023-02-22T00:12:52;101607.94;;;9.85;100.00
62791;BME280;48830;53.426;10.300;2023-02-22T00:15:23;101610.63;;;9.89;100.00
62791;BME280;48830;53.426;10.300;2023-02-22T00:17:53;101609.75;;;9.89;100.00
62791;BME280;48830;53.426;10.300;2023-02-22T00:20:18;101608.13;;;9.91;100.00
62791;BME280;48830;53.426;10.300;2023-02-22T00:22:46;101604.63;;;9.89;100.00
62791;BME280;48830;53.426;10.300;2023-02-22T00:25:15;101607.25;;;9.90;100.00
62791;BME280;48830;53.426;10.300;2023-02-22T00:27:45;101610.41;;;9.82;100.00
62791;BME280;48830;53.426;10.300;2023-02-22T00:30:23;101607.13;;;9.86;100.00
62791;BME280;48830;53.426;10.300;2023-02-22T00:32:50;101602.66;;;9.80;100.00
62791;BME280;48830;53.426;10.300;2023-02-22T00:35:17;101598.28;;;9.78;100.00
62791;BME280;48830;53.426;10.300;2023-02-22T00:37:48;101595.81;;;9.81;100.00
62791;BME280;48830;53.426;10.300;2023-02-22T00:40:17;101593.97;;;9.77;100.00
62791;BME280;48830;53.426;10.300;2023-02-22T00:42:43;101601.69;;;9.77;100.00
62791;BME280;48830;53.426;10.300;2023-02-22T00:45:14;101594.81;;;9.76;100.00
62791;BME280;48830;53.426;10.300;2023-02-22T00:47:40;101595.69;;;9.76;100.00
62791;BME280;48830;53.426;10.300;2023-02-22T00:50:05;101598.28;;;9.78;100.00
62791;BME280;48830;53.426;10.300;2023-02-22T00:52:31;101599.00;;;9.73;100.00
62791;BME280;48830;53.426;10.300;2023-02-22T00:54:57;101600.56;;;9.68;100.00
62791;BME280;48830;53.426;10.300;2023-02-22T00:57:23;101599.66;;;9.66;100.00
62791;BME280;48830;53.426;10.300;2023-02-22T00:59:49;101599.69;;;9.68;100.00
62791;BME280;48830;53.426;10.300;2023-02-22T01:02:16;101604.78;;;9.66;100.00
62791;BME280;48830;53.426;10.300;2023-02-22T01:04:41;101597.91;;;9.65;100.00
62791;BME280;48830;53.426;10.300;2023-02-22T01:07:07;101594.47;;;9.65;100.00
62791;BME280;48830;53.426;10.300;2023-02-22T01:09:32;101592.84;;;9.68;100.00
62791;BME280;48830;53.426;10.300;2023-02-22T01:11:59;101591.13;;;9.67;100.00
62791;BME280;48830;53.426;10.300;2023-02-22T01:14:25;101585.03;;;9.64;100.00
62791;BME280;48830;53.426;10.300;2023-02-22T01:16:53;101595.34;;;9.65;100.00
62791;BME280;48830;53.426;10.300;2023-02-22T01:19:19;101589.00;;;9.54;100.00
62791;BME280;48830;53.426;10.300;2023-02-22T01:21:47;101593.44;;;9.60;100.00
62791;BME280;48830;53.426;10.300;2023-02-22T01:24:13;101593.34;;;9.57;100.00
62791;BME280;48830;53.426;10.300;2023-02-22T01:26:48;101593.44;;;9.60;100.00
62791;BME280;48830;53.426;10.300;2023-02-22T01:29:16;101588.31;;;9.60;100.00
62791;BME280;48830;53.426;10.300;2023-02-22T01:31:50;101597.13;;;9.68;100.00
62791;BME280;48830;53.426;10.300;2023-02-22T01:34:16;101584.16;;;9.63;100.00
62791;BME280;48830;53.426;10.300;2023-02-22T01:36:42;101585.78;;;9.61;100.00
62791;BME280;48830;53.426;10.300;2023-02-22T01:39:08;101592.44;;;9.55;100.00
62791;BME280;48830;53.426;10.300;2023-02-22T01:41:35;101586.50;;;9.57;100.00
62791;BME280;48830;53.426;10.300;2023-02-22T01:44:27;101581.47;;;9.60;100.00
62791;BME280;48830;53.426;10.300;2023-02-22T01:46:55;101583.94;;;9.57;100.00
62791;BME280;48830;53.426;10.300;2023-02-22T01:49:26;101577.78;;;9.52;100.00
62791;BME280;48830;53.426;10.300;2023-02-22T01:51:57;101573.63;;;9.56;100.00
62791;BME280;48830;53.426;10.300;2023-02-22T01:54:31;101579.66;;;9.58;100.00
62791;BME280;48830;53.426;10.300;2023-02-22T01:59:42;101571.66;;;9.47;100.00
62791;BME280;48830;53.426;10.300;2023-02-22T02:02:08;101562.13;;;9.43;100.00
62791;BME280;48830;53.426;10.300;2023-02-22T02:04:35;101564.16;;;9.53;100.00
62791;BME280;48830;53.426;10.300;2023-02-22T02:07:04;101561.50;;;9.52;100.00
62791;BME280;48830;53.426;10.300;2023-02-22T02:12:22;101563.75;;;9.41;100.00
62791;BME280;48830;53.426;10.300;2023-02-22T02:14:49;101558.72;;;9.44;100.00
62791;BME280;48830;53.426;10.300;2023-02-22T02:17:18;101554.22;;;9.37;100.00
62791;BME280;48830;53.426;10.300;2023-02-22T02:20:02;101558.53;;;9.38;100.00
62791;BME280;48830;53.426;10.300;2023-02-22T02:28:21;101555.13;;;9.39;100.00
62791;BME280;48830;53.426;10.300;2023-02-22T02:36:26;101541.50;;;9.41;100.00
62791;BME280;48830;53.426;10.300;2023-02-22T02:38:59;101550.81;;;9.38;100.00
62791;BME280;48830;53.426;10.300;2023-02-22T02:41:38;101542.81;;;9.29;100.00
62791;BME280;48830;53.426;10.300;2023-02-22T02:44:30;101547.44;;;9.39;100.00
62791;BME280;48830;53.426;10.300;2023-02-22T02:47:04;101546.59;;;9.40;100.00
62791;BME280;48830;53.426;10.300;2023-02-22T02:49:36;101541.59;;;9.43;100.00
62791;BME280;48830;53.426;10.300;2023-02-22T02:52:05;101538.91;;;9.40;100.00
62791;BME280;48830;53.426;10.300;2023-02-22T02:54:32;101535.63;;;9.44;100.00
62791;BME280;48830;53.426;10.300;2023-02-22T02:57:01;101538.16;;;9.42;100.00
62791;BME280;48830;53.426;10.300;2023-02-22T02:59:33;101536.44;;;9.43;100.00
62791;BME280;48830;53.426;10.300;2023-02-22T03:10:54;101524.88;;;9.29;100.00
62791;BME280;48830;53.426;10.300;2023-02-22T03:13:41;101519.94;;;9.35;100.00
62791;BME280;48830;53.426;10.300;2023-02-22T03:19:00;101513.88;;;9.33;100.00
62791;BME280;48830;53.426;10.300;2023-02-22T03:24:57;101505.31;;;9.32;100.00
62791;BME280;48830;53.426;10.300;2023-02-22T03:27:33;101505.22;;;9.29;100.00
62791;BME280;48830;53.426;10.300;2023-02-22T03:30:06;101505.34;;;9.34;100.00
62791;BME280;48830;53.426;10.300;2023-02-22T03:32:38;101508.78;;;9.34;100.00
62791;BME280;48830;53.426;10.300;2023-02-22T03:35:10;101509.66;;;9.35;100.00
62791;BME280;48830;53.426;10.300;2023-02-22T03:37:44;101503.63;;;9.33;100.00
62791;BME280;48830;53.426;10.300;2023-02-22T03:40:17;101499.41;;;9.35;100.00
62791;BME280;48830;53.426;10.300;2023-02-22T03:42:55;101502.03;;;9.36;100.00
62791;BME280;48830;53.426;10.300;2023-02-22T03:45:24;101500.38;;;9.38;100.00
62791;BME280;48830;53.426;10.300;2023-02-22T03:48:00;101509.59;;;9.32;100.00
62791;BME280;48830;53.426;10.300;2023-02-22T03:50:33;101502.84;;;9.35;100.00
62791;BME280;48830;53.426;10.300;2023-02-22T03:53:00;101500.34;;;9.37;100.00
62791;BME280;48830;53.426;10.300;2023-02-22T03:55:28;101502.03;;;9.36;100.00
62791;BME280;48830;53.426;10.300;2023-02-22T03:58:00;101506.19;;;9.33;100.00
62791;BME280;48830;53.426;10.300;2023-02-22T04:00:32;101506.06;;;9.30;100.00
62791;BME280;48830;53.426;10.300;2023-02-22T04:02:58;101505.25;;;9.31;100.00
62791;BME280;48830;53.426;10.300;2023-02-22T04:05:24;101497.66;;;9.34;100.00
62791;BME280;48830;53.426;10.300;2023-02-22T04:07:54;101504.38;;;9.30;100.00
62791;BME280;48830;53.426;10.300;2023-02-22T04:10:21;101505.34;;;9.34;100.00
62791;BME280;48830;53.426;10.300;2023-02-22T04:12:48;101506.19;;;9.33;100.00
62791;BME280;48830;53.426;10.300;2023-02-22T04:15:18;101504.44;;;9.32;100.00
62791;BME280;48830;53.426;10.300;2023-02-22T04:17:44;101510.38;;;9.31;100.00
62791;BME280;48830;53.426;10.300;2023-02-22T04:20:13;101511.31;;;9.33;100.00
62791;BME280;48830;53.426;10.300;2023-02-22T04:22:45;101511.88;;;9.24;100.00
62791;BME280;48830;53.426;10.300;2023-02-22T04:25:12;101516.44;;;9.33;100.00
62791;BME280;48830;53.426;10.300;2023-02-22T04:27:38;101517.13;;;9.27;100.00
62791;BME280;48830;53.426;10.300;2023-02-22T04:30:04;101511.13;;;9.27;100.00
62791;BME280;48830;53.426;10.300;2023-02-22T04:32:31;101518.19;;;9.34;100.00
62791;BME280;48830;53.426;10.300;2023-02-22T04:34:57;101509.59;;;9.32;100.00
62791;BME280;48830;53.426;10.300;2023-02-22T04:37:23;101508.78;;;9.34;100.00
62791;BME280;48830;53.426;10.300;2023-02-22T04:39:48;101503.50;;;9.30;100.00
62791;BME280;48830;53.426;10.300;2023-02-22T04:42:14;101507.94;;;9.34;100.00
62791;BME280;48830;53.426;10.300;2023-02-22T04:44:39;101507.00;;;9.32;100.00
62791;BME280;48830;53.426;10.300;2023-02-22T04:47:05;101515.81;;;9.40;100.00
62791;BME280;48830;53.426;10.300;2023-02-22T04:49:30;101512.38;;;9.39;100.00
62791;BME280;48830;53.426;10.300;2023-02-22T04:51:55;101508.94;;;9.39;100.00
62791;BME280;48830;53.426;10.300;2023-02-22T04:54:28;101511.63;;;9.42;100.00
62791;BME280;48830;53.426;10.300;2023-02-22T04:56:54;101505.75;;;9.46;100.00
62791;BME280;48830;53.426;10.300;2023-02-22T04:59:20;101497.03;;;9.41;100.00
62791;BME280;48830;53.426;10.300;2023-02-22T05:01:52;101499.66;;;9.42;100.00
62791;BME280;48830;53.426;10.300;2023-02-22T05:04:17;101501.22;;;9.37;100.00
62791;BME280;48830;53.426;10.300;2023-02-22T05:06:43;101499.50;;;9.38;100.00
62791;BME280;48830;53.426;10.300;2023-02-22T05:09:08;101488.31;;;9.36;100.00
62791;BME280;48830;53.426;10.300;2023-02-22T05:11:34;101493.53;;;9.39;100.00
62791;BME280;48830;53.426;10.300;2023-02-22T05:13:59;101499.59;;;9.41;100.00
62791;BME280;48830;53.426;10.300;2023-02-22T05:16:24;101498.31;;;9.27;100.00
62791;BME280;48830;53.426;10.300;2023-02-22T05:18:50;101499.50;;;9.38;100.00
62791;BME280;48830;53.426;10.300;2023-02-22T05:21:16;101501.25;;;9.39;100.00
62791;BME280;48830;53.426;10.300;2023-02-22T05:23:41;101496.91;;;9.36;100.00
62791;BME280;48830;53.426;10.300;2023-02-22T05:26:07;101501.25;;;9.39;100.00
62791;BME280;48830;53.426;10.300;2023-02-22T05:28:34;101492.00;;;9.44;100.00
62791;BME280;48830;53.426;10.300;2023-02-22T05:31:00;101494.47;;;9.41;100.00
62791;BME280;48830;53.426;10.300;2023-02-22T05:33:25;101495.41;;;9.43;100.00
62791;BME280;48830;53.426;10.300;2023-02-22T05:35:51;101491.09;;;9.42;100.00
62791;BME280;48830;53.426;10.300;2023-02-22T05:38:16;101496.97;;;9.39;100.00
62791;BME280;48830;53.426;10.300;2023-02-22T05:40:42;101499.41;;;9.35;100.00
62791;BME280;48830;53.426;10.300;2023-02-22T05:43:08;101501.06;;;9.33;100.00
62791;BME280;48830;53.426;10.300;2023-02-22T05:45:34;101502.91;;;9.37;100.00
62791;BME280;48830;53.426;10.300;2023-02-22T05:48:01;101498.50;;;9.33;100.00
62791;BME280;48830;53.426;10.300;2023-02-22T05:50:26;101496.91;;;9.36;100.00
62791;BME280;48830;53.426;10.300;2023-02-22T05:52:52;101498.38;;;9.30;100.00
62791;BME280;48830;53.426;10.300;2023-02-22T05:55:21;101485.75;;;9.36;100.00
62791;BME280;48830;53.426;10.300;2023-02-22T05:57:47;101493.38;;;9.33;100.00
62791;BME280;48830;53.426;10.300;2023-02-22T06:00:17;101488.88;;;9.26;100.00
62791;BME280;48830;53.426;10.300;2023-02-22T06:02:43;101487.41;;;9.34;100.00
62791;BME280;48830;53.426;10.300;2023-02-22T06:05:08;101487.97;;;9.25;100.00
62791;BME280;48830;53.426;10.300;2023-02-22T06:07:34;101494.94;;;9.29;100.00
62791;BME280;48830;53.426;10.300;2023-02-22T06:09:59;101495.94;;;9.33;100.00
62791;BME280;48830;53.426;10.300;2023-02-22T06:12:25;101487.97;;;9.25;100.00
62791;BME280;48830;53.426;10.300;2023-02-22T06:14:51;101488.72;;;9.21;100.00
62791;BME280;48830;53.426;10.300;2023-02-22T06:17:16;101491.28;;;9.21;100.00
62791;BME280;48830;53.426;10.300;2023-02-22T06:19:42;101494.09;;;9.29;100.00
62791;BME280;48830;53.426;10.300;2023-02-22T06:22:15;101488.88;;;9.26;100.00
62791;BME280;48830;53.426;10.300;2023-02-22T06:24:41;101491.44;;;9.26;100.00
62791;BME280;48830;53.426;10.300;2023-02-22T06:27:06;101492.31;;;9.26;100.00
62791;BME280;48830;53.426;10.300;2023-02-22T06:29:32;101490.50;;;9.24;100.00
62791;BME280;48830;53.426;10.300;2023-02-22T06:31:57;101492.19;;;9.23;100.00
62791;BME280;48830;53.426;10.300;2023-02-22T06:34:23;101490.69;;;9.30;100.00
62791;BME280;48830;53.426;10.300;2023-02-22T06:36:48;101499.22;;;9.29;100.00
62791;BME280;48830;53.426;10.300;2023-02-22T06:39:15;101501.78;;;9.29;100.00
62791;BME280;48830;53.426;10.300;2023-02-22T06:41:45;101504.00;;;9.18;100.00
62791;BME280;48830;53.426;10.300;2023-02-22T06:44:12;101503.31;;;9.24;100.00
62791;BME280;48830;53.426;10.300;2023-02-22T06:46:37;101501.59;;;9.23;100.00
62791;BME280;48830;53.426;10.300;2023-02-22T06:49:03;101501.06;;;9.33;100.00
62791;BME280;48830;53.426;10.300;2023-02-22T06:51:30;101500.13;;;9.31;100.00
62791;BME280;48830;53.426;10.300;2023-02-22T06:53:59;101501.69;;;9.26;100.00
62791;BME280;48830;53.426;10.300;2023-02-22T06:56:25;101499.88;;;9.23;100.00
62791;BME280;48830;53.426;10.300;2023-02-22T06:58:50;101499.94;;;9.25;100.00
62791;BME280;48830;53.426;10.300;2023-02-22T07:01:16;101499.84;;;9.22;100.00
62791;BME280;48830;53.426;10.300;2023-02-22T07:03:41;101507.81;;;9.31;100.00
62791;BME280;48830;53.426;10.300;2023-02-22T07:06:07;101495.66;;;9.25;100.00
62791;BME280;48830;53.426;10.300;2023-02-22T07:08:33;101510.19;;;9.25;100.00
62791;BME280;48830;53.426;10.300;2023-02-22T07:10:59;101500.69;;;9.20;100.00
62791;BME280;48830;53.426;10.300;2023-02-22T07:13:24;101499.41;;;9.35;100.00
62791;BME280;48830;53.426;10.300;2023-02-22T07:15:49;101506.06;;;9.30;100.00
62791;BME280;48830;53.426;10.300;2023-02-22T07:18:15;101506.50;;;9.42;100.00
62791;BME280;48830;53.426;10.300;2023-02-22T07:20:41;101503.66;;;9.34;100.00
62791;BME280;48830;53.426;10.300;2023-02-22T07:23:07;101501.06;;;9.33;100.00
62791;BME280;48830;53.426;10.300;2023-02-22T07:25:32;101504.53;;;9.35;100.00
62791;BME280;48830;53.426;10.300;2023-02-22T07:27:59;101501.97;;;9.35;100.00
62791;BME280;48830;53.426;10.300;2023-02-22T07:30:27;101503.78;;;9.37;100.00
62791;BME280;48830;53.426;10.300;2023-02-22T07:32:56;101502.91;;;9.37;100.00
62791;BME280;48830;53.426;10.300;2023-02-22T07:35:31;101506.56;;;9.45;100.00
62791;BME280;48830;53.426;10.300;2023-02-22T07:37:57;101507.34;;;9.42;100.00
62791;BME280;48830;53.426;10.300;2023-02-22T07:40:25;101496.41;;;9.48;100.00
62791;BME280;48830;53.426;10.300;2023-02-22T07:45:35;101491.31;;;9.50;100.00
62791;BME280;48830;53.426;10.300;2023-02-22T07:48:02;101490.59;;;9.54;100.00
62791;BME280;48830;53.426;10.300;2023-02-22T07:50:29;101492.91;;;9.46;100.00
62791;BME280;48830;53.426;10.300;2023-02-22T07:52:57;101488.72;;;9.48;100.00
62791;BME280;48830;53.426;10.300;2023-02-22T07:55:25;101489.81;;;9.56;100.00
62791;BME280;48830;53.426;10.300;2023-02-22T07:57:53;101489.03;;;9.59;100.00
62791;BME280;48830;53.426;10.300;2023-02-22T08:02:48;101489.81;;;9.56;100.00
62791;BME280;48830;53.426;10.300;2023-02-22T08:05:14;101486.81;;;9.69;100.00
62791;BME280;48830;53.426;10.300;2023-02-22T08:07:40;101486.81;;;9.69;100.00
62791;BME280;48830;53.426;10.300;2023-02-22T08:10:06;101484.38;;;9.74;100.00
62791;BME280;48830;53.426;10.300;2023-02-22T08:12:33;101480.09;;;9.75;100.00
62791;BME280;48830;53.426;10.300;2023-02-22T08:14:59;101473.19;;;9.73;100.00
62791;BME280;48830;53.426;10.300;2023-02-22T08:17:24;101476.78;;;9.79;100.00
62791;BME280;48830;53.426;10.300;2023-02-22T08:19:50;101475.31;;;9.87;100.00
62791;BME280;48830;53.426;10.300;2023-02-22T08:22:15;101468.88;;;9.71;100.00
62791;BME280;48830;53.426;10.300;2023-02-22T08:24:41;101465.06;;;9.87;100.00
62791;BME280;48830;53.426;10.300;2023-02-22T08:27:06;101474.41;;;9.85;100.00
62791;BME280;48830;53.426;10.300;2023-02-22T08:29:31;101460.97;;;9.93;100.00
62791;BME280;48830;53.426;10.300;2023-02-22T08:32:00;101460.25;;;9.99;100.00
62791;BME280;48830;53.426;10.300;2023-02-22T08:34:26;101455.38;;;10.08;100.00
62791;BME280;48830;53.426;10.300;2023-02-22T08:36:52;101464.72;;;10.06;100.00
62791;BME280;48830;53.426;10.300;2023-02-22T08:39:18;101464.25;;;10.19;100.00
62791;BME280;48830;53.426;10.300;2023-02-22T08:41:44;101465.22;;;10.23;100.00
62791;BME280;48830;53.426;10.300;2023-02-22T08:44:09;101470.84;;;10.40;100.00
62791;BME280;48830;53.426;10.300;2023-02-22T08:46:34;101460.34;;;10.32;100.00
62791;BME280;48830;53.426;10.300;2023-02-22T08:49:00;101459.66;;;10.38;100.00
62791;BME280;48830;53.426;10.300;2023-02-22T08:51:27;101468.13;;;10.34;100.00
62791;BME280;48830;53.426;10.300;2023-02-22T08:53:53;101460.59;;;10.41;100.00
62791;BME280;48830;53.426;10.300;2023-02-22T08:56:19;101463.84;;;10.34;100.00
62791;BME280;48830;53.426;10.300;2023-02-22T08:58:44;101455.91;;;10.27;100.00
62791;BME280;48830;53.426;10.300;2023-02-22T09:01:10;101460.34;;;10.32;100.00
62791;BME280;48830;53.426;10.300;2023-02-22T09:03:36;101460.84;;;10.20;100.00
62791;BME280;48830;53.426;10.300;2023-02-22T09:06:03;101462.78;;;10.28;100.00
62791;BME280;48830;53.426;10.300;2023-02-22T09:08:28;101459.66;;;10.38;100.00
62791;BME280;48830;53.426;10.300;2023-02-22T09:10:54;101465.00;;;10.45;100.00
62791;BME280;48830;53.426;10.300;2023-02-22T09:13:19;101470.13;;;10.44;100.00
62791;BME280;48830;53.426;10.300;2023-02-22T09:15:45;101469.47;;;10.52;100.00
62791;BME280;48830;53.426;10.300;2023-02-22T09:18:12;101460.63;;;10.43;100.00
62791;BME280;48830;53.426;10.300;2023-02-22T09:20:39;101467.63;;;10.48;100.00
62791;BME280;48830;53.426;10.300;2023-02-22T09:23:06;101463.31;;;10.46;100.00
62791;BME280;48830;53.426;10.300;2023-02-22T09:25:31;101466.19;;;10.58;100.00
62791;BME280;48830;53.426;10.300;2023-02-22T09:27:58;101468.69;;;10.55;100.00
62791;BME280;48830;53.426;10.300;2023-02-22T09:30:27;101471.31;;;10.57;100.00
62791;BME280;48830;53.426;10.300;2023-02-22T09:32:58;101460.75;;;10.81;100.00
62791;BME280;48830;53.426;10.300;2023-02-22T09:35:24;101461.88;;;10.57;100.00
62791;BME280;48830;53.426;10.300;2023-02-22T09:37:52;101457.28;;;10.78;100.00
62791;BME280;48830;53.426;10.300;2023-02-22T09:40:19;101450.09;;;10.65;100.00
62791;BME280;48830;53.426;10.300;2023-02-22T09:51:54;101462.28;;;10.72;100.00
62791;BME280;48830;53.426;10.300;2023-02-22T09:54:26;101452.00;;;10.72;100.00
62791;BME280;48830;53.426;10.300;2023-02-22T09:56:55;101453.81;;;10.76;100.00
62791;BME280;48830;53.426;10.300;2023-02-22T09:59:27;101450.91;;;10.64;100.00
62791;BME280;48830;53.426;10.300;2023-02-22T10:02:14;101444.34;;;10.75;100.00
62791;BME280;48830;53.426;10.300;2023-02-22T10:04:59;101449.22;;;10.98;100.00
62791;BME280;48830;53.426;10.300;2023-02-22T10:11:00;101441.06;;;11.17;100.00
62791;BME280;48830;53.426;10.300;2023-02-22T10:16:33;101430.88;;;11.20;100.00
62791;BME280;48830;53.426;10.300;2023-02-22T10:26:54;101427.66;;;11.30;100.00
62791;BME280;48830;53.426;10.300;2023-02-22T10:29:37;101428.78;;;11.42;100.00
62791;BME280;48830;53.426;10.300;2023-02-22T10:32:05;101426.34;;;11.48;100.00
62791;BME280;48830;53.426;10.300;2023-02-22T10:34:47;101423.56;;;11.40;100.00
62791;BME280;48830;53.426;10.300;2023-02-22T10:37:26;101426.31;;;11.87;100.00
62791;BME280;48830;53.426;10.300;2023-02-22T10:39:57;101416.19;;;12.42;100.00
62791;BME280;48830;53.426;10.300;2023-02-22T10:42:29;101416.28;;;12.98;100.00
62791;BME280;48830;53.426;10.300;2023-02-22T10:44:54;101407.69;;;14.35;100.00
62791;BME280;48830;53.426;10.300;2023-02-22T10:47:20;101408.97;;;13.92;100.00
62791;BME280;48830;53.426;10.300;2023-02-22T10:49:51;101405.25;;;13.70;100.00
62791;BME280;48830;53.426;10.300;2023-02-22T10:52:31;101409.00;;;14.80;100.00
62791;BME280;48830;53.426;10.300;2023-02-22T10:54:59;101405.06;;;15.37;100.00
62791;BME280;48830;53.426;10.300;2023-02-22T10:57:28;101412.84;;;15.34;100.00
62791;BME280;48830;53.426;10.300;2023-02-22T10:59:55;101395.94;;;16.65;91.16
62791;BME280;48830;53.426;10.300;2023-02-22T11:02:32;101397.16;;;18.29;80.20
62791;BME280;48830;53.426;10.300;2023-02-22T11:05:00;101401.63;;;19.23;72.23
62791;BME280;48830;53.426;10.300;2023-02-22T11:12:35;101402.50;;;15.43;89.03
62791;BME280;48830;53.426;10.300;2023-02-22T11:17:41;101392.50;;;16.84;88.96
62791;BME280;48830;53.426;10.300;2023-02-22T11:20:21;101395.59;;;15.42;96.69
62791;BME280;48830;53.426;10.300;2023-02-22T11:22:55;101381.78;;;17.91;85.63
62791;BME280;48830;53.426;10.300;2023-02-22T11:25:28;101375.81;;;20.34;63.58
62791;BME280;48830;53.426;10.300;2023-02-22T11:28:07;101374.19;;;21.72;57.06
62791;BME280;48830;53.426;10.300;2023-02-22T11:30:34;101379.00;;;19.96;68.74
62791;BME280;48830;53.426;10.300;2023-02-22T11:38:21;101350.66;;;17.70;77.21
62791;BME280;48830;53.426;10.300;2023-02-22T11:41:13;101347.47;;;17.07;79.66
62791;BME280;48830;53.426;10.300;2023-02-22T11:43:40;101342.31;;;16.54;83.54
62791;BME280;48830;53.426;10.300;2023-02-22T11:48:37;101336.00;;;23.68;51.76
62791;BME280;48830;53.426;10.300;2023-02-22T11:51:59;101334.38;;;21.59;57.09
62791;BME280;48830;53.426;10.300;2023-02-22T11:56:51;101322.75;;;19.07;65.64
62791;BME280;48830;53.426;10.300;2023-02-22T12:21:01;101299.06;;;16.37;81.68
62791;BME280;48830;53.426;10.300;2023-02-22T12:23:42;101293.00;;;16.01;84.26
62791;BME280;48830;53.426;10.300;2023-02-22T12:26:13;101299.81;;;15.65;88.56
62791;BME280;48830;53.426;10.300;2023-02-22T12:28:46;101295.41;;;15.35;89.24
62791;BME280;48830;53.426;10.300;2023-02-22T12:33:53;101292.75;;;15.26;87.97
62791;BME280;48830;53.426;10.300;2023-02-22T12:36:31;101289.38;;;15.45;87.31
62791;BME280;48830;53.426;10.300;2023-02-22T12:39:04;101291.81;;;15.10;88.54
62791;BME280;48830;53.426;10.300;2023-02-22T12:41:45;101292.47;;;14.74;91.29
62791;BME280;48830;53.426;10.300;2023-02-22T12:44:32;101282.41;;;15.32;88.21
62791;BME280;48830;53.426;10.300;2023-02-22T12:46:59;101281.59;;;15.42;87.09
62791;BME280;48830;53.426;10.300;2023-02-22T12:49:42;101266.94;;;15.54;85.21
62791;BME280;48830;53.426;10.300;2023-02-22T12:52:18;101268.78;;;15.88;83.82
62791;BME280;48830;53.426;10.300;2023-02-22T13:00:04;101271.06;;;15.00;88.86
62791;BME280;48830;53.426;10.300;2023-02-22T13:02:39;101261.41;;;14.68;91.05
62791;BME280;48830;53.426;10.300;2023-02-22T13:05:16;101265.06;;;15.04;91.51
62791;BME280;48830;53.426;10.300;2023-02-22T13:08:15;101253.88;;;15.14;90.19
62791;BME280;48830;53.426;10.300;2023-02-22T13:10:56;101257.44;;;15.49;89.32
62791;BME280;48830;53.426;10.300;2023-02-22T13:13:33;101249.59;;;15.33;89.48
62791;BME280;48830;53.426;10.300;2023-02-22T13:21:46;101249.91;;;14.29;93.22
62791;BME280;48830;53.426;10.300;2023-02-22T13:27:26;101251.00;;;14.59;94.53
62791;BME280;48830;53.426;10.300;2023-02-22T13:29:58;101256.97;;;14.49;94.67
62791;BME280;48830;53.426;10.300;2023-02-22T13:35:28;101244.19;;;14.70;96.18
62791;BME280;48830;53.426;10.300;2023-02-22T13:48:26;101234.59;;;14.55;100.00
62791;BME280;48830;53.426;10.300;2023-02-22T13:51:23;101232.72;;;14.40;100.00
62791;BME280;48830;53.426;10.300;2023-02-22T13:54:01;101231.84;;;14.32;100.00
62791;BME280;48830;53.426;10.300;2023-02-22T13:56:29;101227.44;;;14.22;100.00
62791;BME280;48830;53.426;10.300;2023-02-22T13:58:58;101225.81;;;14.33;100.00
62791;BME280;48830;53.426;10.300;2023-02-22T14:01:47;101228.25;;;14.16;100.00
62791;BME280;48830;53.426;10.300;2023-02-22T14:06:46;101231.72;;;14.17;100.00
62791;BME280;48830;53.426;10.300;2023-02-22T14:09:16;101226.53;;;14.18;100.00
62791;BME280;48830;53.426;10.300;2023-02-22T14:11:48;101225.56;;;14.03;100.00
62791;BME280;48830;53.426;10.300;2023-02-22T14:14:18;101221.16;;;13.89;100.00
62791;BME280;48830;53.426;10.300;2023-02-22T14:17:20;101227.31;;;14.07;100.00
62791;BME280;48830;53.426;10.300;2023-02-22T14:20:00;101221.22;;;13.97;100.00
62791;BME280;48830;53.426;10.300;2023-02-22T14:22:28;101216.13;;;14.05;100.00
62791;BME280;48830;53.426;10.300;2023-02-22T14:24:54;101223.91;;;14.11;100.00
62791;BME280;48830;53.426;10.300;2023-02-22T14:27:20;101220.31;;;13.92;100.00
62791;BME280;48830;53.426;10.300;2023-02-22T14:29:54;101222.00;;;13.88;100.00
62791;BME280;48830;53.426;10.300;2023-02-22T14:32:30;101220.25;;;13.84;100.00
62791;BME280;48830;53.426;10.300;2023-02-22T14:34:57;101218.53;;;13.88;100.00
62791;BME280;48830;53.426;10.300;2023-02-22T14:37:27;101216.75;;;13.82;100.00
62791;BME280;48830;53.426;10.300;2023-02-22T14:39:59;101212.53;;;13.89;100.00
62791;BME280;48830;53.426;10.300;2023-02-22T14:42:40;101219.53;;;13.99;100.00
62791;BME280;48830;53.426;10.300;2023-02-22T14:53:02;101202.88;;;13.71;100.00
62791;BME280;48830;53.426;10.300;2023-02-22T14:55:33;101202.94;;;13.77;100.00
62791;BME280;48830;53.426;10.300;2023-02-22T15:03:44;101212.31;;;13.66;100.00
62791;BME280;48830;53.426;10.300;2023-02-22T15:06:23;101201.91;;;13.58;100.00
62791;BME280;48830;53.426;10.300;2023-02-22T15:09:10;101199.31;;;13.57;100.00
62791;BME280;48830;53.426;10.300;2023-02-22T15:11:36;101199.38;;;13.63;100.00
62791;BME280;48830;53.426;10.300;2023-02-22T15:14:17;101197.56;;;13.53;100.00
62791;BME280;48830;53.426;10.300;2023-02-22T15:16:52;101188.94;;;13.51;100.00